CheckWX is a tool to help pilots better visualize weather data.  It is not intended as a substitute for an official pre-flight weather briefing.

04:20:22 UTC

CYYG METAR
Charlottetown Airport
Charlottetown, Canada
Current

1 hour ago

CYYG 270300Z 17010KT 15SM SCT085 BKN110 15/09 A3026 RMK AC3AC4 SLP248
Observed
Jun-27 @ 03:00 UTC
Wind
  • 170° at 10 KTS
Visibility
15 SM
Flight Rules
VFR
Cloud Levels
  • Scattered at 8,500' AGL
  • Broken at 11,000' AGL
Temperature
15°C / 59°F
Dewpoint
C / 48°F
Humidity
68%
Altimeter
30.26" Hg
Pressure
1024.72 hPa
Previous

2 hours ago

CYYG 270200Z 18008KT 15SM FEW085 BKN110 16/10 A3025 RMK AC2AC5 SLP245
Observed
Jun-27 @ 02:00 UTC
Wind
  • 180° at 8 KTS
Visibility
15 SM
Flight Rules
VFR
Cloud Levels
  • Few at 8,500' AGL
  • Broken at 11,000' AGL
Temperature
16°C / 61°F
Dewpoint
10°C / 50°F
Humidity
68%
Altimeter
30.25" Hg
Pressure
1024.42 hPa
Previous

3 hours ago

CYYG 270100Z 18011KT 15SM SCT085 BKN120 17/10 A3024 RMK AC3AC4 SLP241
Observed
Jun-27 @ 01:00 UTC
Wind
  • 180° at 11 KTS
Visibility
15 SM
Flight Rules
VFR
Cloud Levels
  • Scattered at 8,500' AGL
  • Broken at 12,000' AGL
Temperature
17°C / 63°F
Dewpoint
10°C / 50°F
Humidity
64%
Altimeter
30.24" Hg
Pressure
1024.02 hPa